sensor_id;sensor_type;location;lat;lon;timestamp;P1;durP1;ratioP1;P2;durP2;ratioP2
15814;SDS011;8008;50.024;8.172;2023-02-11T04:00:34;48.63;;;22.53;;
15814;SDS011;8008;50.024;8.172;2023-02-11T04:03:04;44.67;;;21.23;;
15814;SDS011;8008;50.024;8.172;2023-02-11T04:05:33;44.43;;;22.57;;
15814;SDS011;8008;50.024;8.172;2023-02-11T04:08:01;42.13;;;21.73;;
15814;SDS011;8008;50.024;8.172;2023-02-11T04:10:29;41.40;;;21.50;;
15814;SDS011;8008;50.024;8.172;2023-02-11T04:12:57;43.30;;;22.27;;
15814;SDS011;8008;50.024;8.172;2023-02-11T04:15:25;37.60;;;21.23;;
15814;SDS011;8008;50.024;8.172;2023-02-11T04:17:55;43.20;;;21.60;;
15814;SDS011;8008;50.024;8.172;2023-02-11T04:20:23;42.47;;;22.00;;
15814;SDS011;8008;50.024;8.172;2023-02-11T04:22:50;42.60;;;21.80;;
15814;SDS011;8008;50.024;8.172;2023-02-11T04:25:18;42.30;;;22.27;;
15814;SDS011;8008;50.024;8.172;2023-02-11T04:27:46;38.53;;;20.90;;
15814;SDS011;8008;50.024;8.172;2023-02-11T04:30:14;40.13;;;20.53;;
15814;SDS011;8008;50.024;8.172;2023-02-11T04:32:42;37.03;;;20.87;;
15814;SDS011;8008;50.024;8.172;2023-02-11T04:35:11;40.47;;;21.47;;
15814;SDS011;8008;50.024;8.172;2023-02-11T04:37:39;41.27;;;21.13;;
15814;SDS011;8008;50.024;8.172;2023-02-11T04:40:07;37.90;;;20.37;;
15814;SDS011;8008;50.024;8.172;2023-02-11T04:42:36;38.60;;;20.57;;
15814;SDS011;8008;50.024;8.172;2023-02-11T04:45:04;41.47;;;19.70;;
15814;SDS011;8008;50.024;8.172;2023-02-11T04:47:33;35.10;;;20.30;;
15814;SDS011;8008;50.024;8.172;2023-02-11T04:50:03;37.23;;;20.23;;
15814;SDS011;8008;50.024;8.172;2023-02-11T04:52:32;39.57;;;20.50;;
15814;SDS011;8008;50.024;8.172;2023-02-11T04:55:00;39.30;;;20.80;;
15814;SDS011;8008;50.024;8.172;2023-02-11T04:57:28;40.93;;;21.40;;
15814;SDS011;8008;50.024;8.172;2023-02-11T04:59:56;37.83;;;20.77;;
15814;SDS011;8008;50.024;8.172;2023-02-11T05:02:24;42.73;;;21.07;;
15814;SDS011;8008;50.024;8.172;2023-02-11T05:04:52;39.50;;;21.70;;
15814;SDS011;8008;50.024;8.172;2023-02-11T05:07:19;38.17;;;20.30;;
15814;SDS011;8008;50.024;8.172;2023-02-11T05:09:49;41.43;;;21.47;;
15814;SDS011;8008;50.024;8.172;2023-02-11T05:12:17;41.33;;;21.63;;
15814;SDS011;8008;50.024;8.172;2023-02-11T05:14:44;40.50;;;21.73;;
15814;SDS011;8008;50.024;8.172;2023-02-11T05:17:12;41.57;;;20.73;;
15814;SDS011;8008;50.024;8.172;2023-02-11T05:19:40;41.30;;;20.97;;
15814;SDS011;8008;50.024;8.172;2023-02-11T05:22:08;41.10;;;21.20;;
15814;SDS011;8008;50.024;8.172;2023-02-11T05:24:36;45.13;;;22.03;;
15814;SDS011;8008;50.024;8.172;2023-02-11T05:27:05;40.67;;;20.60;;
15814;SDS011;8008;50.024;8.172;2023-02-11T05:29:33;45.03;;;22.47;;
15814;SDS011;8008;50.024;8.172;2023-02-11T05:32:01;40.50;;;21.27;;
15814;SDS011;8008;50.024;8.172;2023-02-11T05:34:29;39.47;;;20.90;;
15814;SDS011;8008;50.024;8.172;2023-02-11T05:36:57;43.00;;;21.87;;
15814;SDS011;8008;50.024;8.172;2023-02-11T05:39:25;40.60;;;21.10;;
15814;SDS011;8008;50.024;8.172;2023-02-11T05:41:53;40.77;;;21.03;;
15814;SDS011;8008;50.024;8.172;2023-02-11T05:44:22;40.67;;;20.23;;
15814;SDS011;8008;50.024;8.172;2023-02-11T05:46:50;36.13;;;20.20;;
15814;SDS011;8008;50.024;8.172;2023-02-11T05:49:18;37.03;;;20.30;;
15814;SDS011;8008;50.024;8.172;2023-02-11T05:51:46;38.27;;;20.00;;
15814;SDS011;8008;50.024;8.172;2023-02-11T05:54:14;36.47;;;20.43;;
15814;SDS011;8008;50.024;8.172;2023-02-11T05:56:42;38.60;;;19.30;;
15814;SDS011;8008;50.024;8.172;2023-02-11T05:59:11;35.13;;;19.43;;
15814;SDS011;8008;50.024;8.172;2023-02-11T06:01:41;40.77;;;21.60;;
15814;SDS011;8008;50.024;8.172;2023-02-11T06:04:09;38.67;;;20.53;;
15814;SDS011;8008;50.024;8.172;2023-02-11T06:06:37;40.80;;;21.97;;
15814;SDS011;8008;50.024;8.172;2023-02-11T06:09:05;38.33;;;20.20;;
15814;SDS011;8008;50.024;8.172;2023-02-11T06:11:33;38.63;;;20.37;;
15814;SDS011;8008;50.024;8.172;2023-02-11T06:14:00;36.77;;;20.80;;
15814;SDS011;8008;50.024;8.172;2023-02-11T06:16:28;37.53;;;20.37;;
15814;SDS011;8008;50.024;8.172;2023-02-11T06:18:58;40.70;;;22.47;;
15814;SDS011;8008;50.024;8.172;2023-02-11T06:21:26;38.53;;;21.33;;
15814;SDS011;8008;50.024;8.172;2023-02-11T06:24:08;37.23;;;20.07;;
15814;SDS011;8008;50.024;8.172;2023-02-11T06:26:37;35.17;;;19.77;;
15814;SDS011;8008;50.024;8.172;2023-02-11T06:29:04;40.57;;;20.37;;
15814;SDS011;8008;50.024;8.172;2023-02-11T06:31:35;39.10;;;19.83;;
15814;SDS011;8008;50.024;8.172;2023-02-11T06:34:05;36.37;;;20.93;;
15814;SDS011;8008;50.024;8.172;2023-02-11T06:36:33;37.80;;;20.57;;
15814;SDS011;8008;50.024;8.172;2023-02-11T06:39:01;38.23;;;20.50;;
15814;SDS011;8008;50.024;8.172;2023-02-11T06:41:29;43.13;;;21.30;;
15814;SDS011;8008;50.024;8.172;2023-02-11T06:43:57;36.80;;;19.60;;
15814;SDS011;8008;50.024;8.172;2023-02-11T06:46:25;37.10;;;19.97;;
15814;SDS011;8008;50.024;8.172;2023-02-11T06:48:53;38.70;;;20.10;;
15814;SDS011;8008;50.024;8.172;2023-02-11T06:51:22;39.90;;;19.53;;
15814;SDS011;8008;50.024;8.172;2023-02-11T06:53:50;38.10;;;20.33;;
15814;SDS011;8008;50.024;8.172;2023-02-11T06:56:19;36.37;;;20.27;;
15814;SDS011;8008;50.024;8.172;2023-02-11T06:58:50;41.23;;;21.47;;
15814;SDS011;8008;50.024;8.172;2023-02-11T07:01:20;41.13;;;22.43;;
15814;SDS011;8008;50.024;8.172;2023-02-11T07:03:48;45.80;;;23.83;;
15814;SDS011;8008;50.024;8.172;2023-02-11T07:06:18;43.83;;;21.53;;
15814;SDS011;8008;50.024;8.172;2023-02-11T07:08:48;39.17;;;19.90;;
15814;SDS011;8008;50.024;8.172;2023-02-11T07:11:17;35.97;;;20.40;;
15814;SDS011;8008;50.024;8.172;2023-02-11T07:13:49;36.07;;;19.40;;
15814;SDS011;8008;50.024;8.172;2023-02-11T07:16:18;36.13;;;19.23;;
15814;SDS011;8008;50.024;8.172;2023-02-11T07:18:46;39.50;;;19.30;;
15814;SDS011;8008;50.024;8.172;2023-02-11T07:21:15;35.43;;;18.70;;
15814;SDS011;8008;50.024;8.172;2023-02-11T07:23:45;36.90;;;19.63;;
15814;SDS011;8008;50.024;8.172;2023-02-11T07:26:15;38.97;;;19.37;;
15814;SDS011;8008;50.024;8.172;2023-02-11T07:28:44;38.53;;;19.37;;
15814;SDS011;8008;50.024;8.172;2023-02-11T07:31:13;36.93;;;19.70;;
15814;SDS011;8008;50.024;8.172;2023-02-11T07:33:43;35.30;;;19.77;;
15814;SDS011;8008;50.024;8.172;2023-02-11T07:36:12;33.30;;;18.80;;
15814;SDS011;8008;50.024;8.172;2023-02-11T07:38:41;34.87;;;18.77;;
15814;SDS011;8008;50.024;8.172;2023-02-11T07:41:10;35.90;;;19.07;;
15814;SDS011;8008;50.024;8.172;2023-02-11T07:43:41;36.20;;;19.27;;
15814;SDS011;8008;50.024;8.172;2023-02-11T07:46:10;35.27;;;19.30;;
15814;SDS011;8008;50.024;8.172;2023-02-11T07:48:39;34.43;;;18.50;;
15814;SDS011;8008;50.024;8.172;2023-02-11T07:51:07;36.83;;;19.90;;
15814;SDS011;8008;50.024;8.172;2023-02-11T07:53:36;37.57;;;20.17;;
15814;SDS011;8008;50.024;8.172;2023-02-11T07:56:05;38.90;;;20.83;;
15814;SDS011;8008;50.024;8.172;2023-02-11T07:58:34;35.80;;;20.10;;
15814;SDS011;8008;50.024;8.172;2023-02-11T08:01:04;38.57;;;19.60;;
15814;SDS011;8008;50.024;8.172;2023-02-11T08:03:33;39.53;;;20.13;;
15814;SDS011;8008;50.024;8.172;2023-02-11T08:06:02;36.90;;;19.63;;
15814;SDS011;8008;50.024;8.172;2023-02-11T08:08:30;34.83;;;19.67;;
15814;SDS011;8008;50.024;8.172;2023-02-11T08:10:58;33.60;;;19.17;;
15814;SDS011;8008;50.024;8.172;2023-02-11T08:13:32;37.73;;;19.00;;
15814;SDS011;8008;50.024;8.172;2023-02-11T08:16:00;32.00;;;18.27;;
15814;SDS011;8008;50.024;8.172;2023-02-11T08:18:29;32.80;;;18.90;;
15814;SDS011;8008;50.024;8.172;2023-02-11T08:21:02;32.17;;;18.00;;
15814;SDS011;8008;50.024;8.172;2023-02-11T08:23:31;32.03;;;18.63;;
15814;SDS011;8008;50.024;8.172;2023-02-11T08:26:00;34.33;;;18.83;;
15814;SDS011;8008;50.024;8.172;2023-02-11T08:28:28;33.27;;;18.20;;
15814;SDS011;8008;50.024;8.172;2023-02-11T08:30:56;33.73;;;19.43;;
15814;SDS011;8008;50.024;8.172;2023-02-11T08:33:24;34.00;;;19.83;;
15814;SDS011;8008;50.024;8.172;2023-02-11T08:35:53;34.93;;;19.00;;
15814;SDS011;8008;50.024;8.172;2023-02-11T08:38:21;37.67;;;20.33;;
15814;SDS011;8008;50.024;8.172;2023-02-11T08:40:49;51.77;;;25.40;;
15814;SDS011;8008;50.024;8.172;2023-02-11T08:43:17;52.97;;;25.70;;
15814;SDS011;8008;50.024;8.172;2023-02-11T08:45:45;58.33;;;28.10;;
15814;SDS011;8008;50.024;8.172;2023-02-11T08:48:13;49.07;;;24.10;;
15814;SDS011;8008;50.024;8.172;2023-02-11T08:50:41;47.13;;;24.77;;
15814;SDS011;8008;50.024;8.172;2023-02-11T08:53:10;37.77;;;21.03;;
15814;SDS011;8008;50.024;8.172;2023-02-11T08:55:38;37.40;;;19.87;;
15814;SDS011;8008;50.024;8.172;2023-02-11T08:58:06;31.83;;;17.97;;
15814;SDS011;8008;50.024;8.172;2023-02-11T09:00:34;39.00;;;19.70;;
15814;SDS011;8008;50.024;8.172;2023-02-11T09:03:02;34.67;;;18.13;;
15814;SDS011;8008;50.024;8.172;2023-02-11T09:05:30;32.60;;;17.53;;
15814;SDS011;8008;50.024;8.172;2023-02-11T09:07:58;35.57;;;18.73;;
15814;SDS011;8008;50.024;8.172;2023-02-11T09:10:27;33.70;;;18.27;;
15814;SDS011;8008;50.024;8.172;2023-02-11T09:12:55;32.13;;;18.47;;
15814;SDS011;8008;50.024;8.172;2023-02-11T09:15:23;33.47;;;18.23;;
15814;SDS011;8008;50.024;8.172;2023-02-11T09:17:51;34.90;;;18.57;;
15814;SDS011;8008;50.024;8.172;2023-02-11T09:20:19;30.80;;;17.97;;
15814;SDS011;8008;50.024;8.172;2023-02-11T09:22:47;44.23;;;24.33;;
15814;SDS011;8008;50.024;8.172;2023-02-11T09:25:15;35.20;;;20.33;;
15814;SDS011;8008;50.024;8.172;2023-02-11T09:27:44;35.23;;;20.07;;
15814;SDS011;8008;50.024;8.172;2023-02-11T09:30:12;36.77;;;20.20;;
15814;SDS011;8008;50.024;8.172;2023-02-11T09:32:40;32.83;;;19.53;;
15814;SDS011;8008;50.024;8.172;2023-02-11T09:35:08;34.30;;;19.80;;
15814;SDS011;8008;50.024;8.172;2023-02-11T09:37:36;36.27;;;19.03;;
15814;SDS011;8008;50.024;8.172;2023-02-11T09:40:04;29.20;;;18.13;;
15814;SDS011;8008;50.024;8.172;2023-02-11T09:42:38;37.27;;;20.63;;
15814;SDS011;8008;50.024;8.172;2023-02-11T09:45:13;31.80;;;18.70;;
15814;SDS011;8008;50.024;8.172;2023-02-11T09:47:46;31.10;;;18.20;;
15814;SDS011;8008;50.024;8.172;2023-02-11T09:50:17;31.40;;;18.87;;
15814;SDS011;8008;50.024;8.172;2023-02-11T09:52:51;30.77;;;18.17;;
15814;SDS011;8008;50.024;8.172;2023-02-11T09:55:24;32.77;;;18.70;;
15814;SDS011;8008;50.024;8.172;2023-02-11T09:57:55;33.87;;;19.33;;
15814;SDS011;8008;50.024;8.172;2023-02-11T10:00:26;34.87;;;19.03;;
15814;SDS011;8008;50.024;8.172;2023-02-11T10:03:02;32.33;;;19.70;;
15814;SDS011;8008;50.024;8.172;2023-02-11T10:05:55;35.60;;;18.70;;
15814;SDS011;8008;50.024;8.172;2023-02-11T10:08:38;30.63;;;17.07;;
15814;SDS011;8008;50.024;8.172;2023-02-11T10:11:12;36.90;;;22.97;;
15814;SDS011;8008;50.024;8.172;2023-02-11T10:14:00;30.97;;;18.47;;
15814;SDS011;8008;50.024;8.172;2023-02-11T10:16:39;28.10;;;16.67;;
15814;SDS011;8008;50.024;8.172;2023-02-11T10:19:20;27.97;;;16.80;;
15814;SDS011;8008;50.024;8.172;2023-02-11T10:22:08;24.80;;;15.20;;
15814;SDS011;8008;50.024;8.172;2023-02-11T10:24:41;28.57;;;15.63;;
15814;SDS011;8008;50.024;8.172;2023-02-11T10:27:18;27.07;;;16.77;;
15814;SDS011;8008;50.024;8.172;2023-02-11T10:29:48;30.07;;;16.23;;
15814;SDS011;8008;50.024;8.172;2023-02-11T10:32:24;28.50;;;15.73;;
15814;SDS011;8008;50.024;8.172;2023-02-11T10:34:59;26.40;;;16.00;;
15814;SDS011;8008;50.024;8.172;2023-02-11T10:37:30;27.27;;;15.73;;
15814;SDS011;8008;50.024;8.172;2023-02-11T10:40:00;30.07;;;15.47;;
15814;SDS011;8008;50.024;8.172;2023-02-11T10:42:28;28.10;;;16.53;;
15814;SDS011;8008;50.024;8.172;2023-02-11T10:44:57;27.53;;;15.20;;
15814;SDS011;8008;50.024;8.172;2023-02-11T10:47:32;26.73;;;15.90;;
15814;SDS011;8008;50.024;8.172;2023-02-11T10:50:07;26.77;;;17.03;;
15814;SDS011;8008;50.024;8.172;2023-02-11T10:52:46;28.17;;;15.77;;
15814;SDS011;8008;50.024;8.172;2023-02-11T10:55:14;25.80;;;15.67;;
15814;SDS011;8008;50.024;8.172;2023-02-11T10:57:48;25.50;;;14.90;;
15814;SDS011;8008;50.024;8.172;2023-02-11T11:00:22;27.57;;;16.33;;
15814;SDS011;8008;50.024;8.172;2023-02-11T11:02:59;28.60;;;15.73;;
15814;SDS011;8008;50.024;8.172;2023-02-11T11:05:29;29.73;;;15.97;;
15814;SDS011;8008;50.024;8.172;2023-02-11T11:07:59;25.80;;;14.93;;
15814;SDS011;8008;50.024;8.172;2023-02-11T11:10:33;27.03;;;15.33;;
15814;SDS011;8008;50.024;8.172;2023-02-11T11:13:24;30.87;;;15.60;;
15814;SDS011;8008;50.024;8.172;2023-02-11T11:18:45;30.33;;;17.83;;
15814;SDS011;8008;50.024;8.172;2023-02-11T11:21:16;27.97;;;16.20;;
15814;SDS011;8008;50.024;8.172;2023-02-11T11:23:47;27.27;;;15.80;;
15814;SDS011;8008;50.024;8.172;2023-02-11T11:26:17;28.67;;;15.70;;
15814;SDS011;8008;50.024;8.172;2023-02-11T11:28:50;28.17;;;15.40;;
15814;SDS011;8008;50.024;8.172;2023-02-11T11:31:26;25.23;;;14.77;;
15814;SDS011;8008;50.024;8.172;2023-02-11T11:33:58;30.17;;;15.20;;
15814;SDS011;8008;50.024;8.172;2023-02-11T11:36:35;25.93;;;14.70;;
15814;SDS011;8008;50.024;8.172;2023-02-11T11:39:14;25.60;;;14.90;;
15814;SDS011;8008;50.024;8.172;2023-02-11T11:41:50;26.73;;;15.43;;
15814;SDS011;8008;50.024;8.172;2023-02-11T11:44:24;26.83;;;14.47;;
15814;SDS011;8008;50.024;8.172;2023-02-11T11:47:04;23.30;;;14.07;;
15814;SDS011;8008;50.024;8.172;2023-02-11T11:49:49;24.80;;;14.53;;
15814;SDS011;8008;50.024;8.172;2023-02-11T11:52:32;21.83;;;12.83;;
15814;SDS011;8008;50.024;8.172;2023-02-11T11:55:08;20.40;;;11.43;;
15814;SDS011;8008;50.024;8.172;2023-02-11T11:57:40;20.77;;;12.40;;
15814;SDS011;8008;50.024;8.172;2023-02-11T12:00:12;20.47;;;11.87;;
15814;SDS011;8008;50.024;8.172;2023-02-11T12:05:54;21.27;;;12.50;;
15814;SDS011;8008;50.024;8.172;2023-02-11T12:08:33;20.27;;;11.60;;
15814;SDS011;8008;50.024;8.172;2023-02-11T12:11:09;22.17;;;12.03;;
15814;SDS011;8008;50.024;8.172;2023-02-11T12:13:59;20.17;;;11.80;;
15814;SDS011;8008;50.024;8.172;2023-02-11T12:16:40;17.63;;;10.97;;
15814;SDS011;8008;50.024;8.172;2023-02-11T12:22:16;18.07;;;10.43;;
15814;SDS011;8008;50.024;8.172;2023-02-11T12:24:55;17.57;;;11.47;;
15814;SDS011;8008;50.024;8.172;2023-02-11T12:27:38;19.80;;;12.70;;
15814;SDS011;8008;50.024;8.172;2023-02-11T12:30:15;16.60;;;10.33;;
15814;SDS011;8008;50.024;8.172;2023-02-11T12:32:54;17.13;;;9.70;;
15814;SDS011;8008;50.024;8.172;2023-02-11T12:35:35;17.13;;;9.80;;
15814;SDS011;8008;50.024;8.172;2023-02-11T12:38:23;16.07;;;9.80;;
15814;SDS011;8008;50.024;8.172;2023-02-11T12:41:22;16.55;;;9.70;;
15814;SDS011;8008;50.024;8.172;2023-02-11T12:44:20;15.77;;;8.70;;
15814;SDS011;8008;50.024;8.172;2023-02-11T12:46:56;13.70;;;8.53;;
15814;SDS011;8008;50.024;8.172;2023-02-11T12:49:41;15.83;;;9.27;;
15814;SDS011;8008;50.024;8.172;2023-02-11T12:52:24;13.00;;;7.70;;
15814;SDS011;8008;50.024;8.172;2023-02-11T12:55:13;14.83;;;8.93;;
15814;SDS011;8008;50.024;8.172;2023-02-11T12:57:47;14.97;;;8.50;;
15814;SDS011;8008;50.024;8.172;2023-02-11T13:00:17;15.53;;;9.20;;
15814;SDS011;8008;50.024;8.172;2023-02-11T13:02:49;12.23;;;7.90;;
15814;SDS011;8008;50.024;8.172;2023-02-11T13:05:23;14.77;;;8.83;;
15814;SDS011;8008;50.024;8.172;2023-02-11T13:07:55;15.63;;;8.43;;
15814;SDS011;8008;50.024;8.172;2023-02-11T13:10:32;13.00;;;8.10;;
15814;SDS011;8008;50.024;8.172;2023-02-11T13:13:02;12.47;;;7.63;;
15814;SDS011;8008;50.024;8.172;2023-02-11T13:15:42;13.17;;;8.07;;
15814;SDS011;8008;50.024;8.172;2023-02-11T13:18:16;14.13;;;8.73;;
15814;SDS011;8008;50.024;8.172;2023-02-11T13:20:52;12.30;;;7.87;;
15814;SDS011;8008;50.024;8.172;2023-02-11T13:23:25;12.63;;;7.93;;
15814;SDS011;8008;50.024;8.172;2023-02-11T13:26:04;12.23;;;7.93;;
15814;SDS011;8008;50.024;8.172;2023-02-11T13:28:41;14.60;;;8.27;;
15814;SDS011;8008;50.024;8.172;2023-02-11T13:31:15;16.20;;;8.57;;
15814;SDS011;8008;50.024;8.172;2023-02-11T13:33:45;14.20;;;9.03;;
15814;SDS011;8008;50.024;8.172;2023-02-11T13:36:19;15.73;;;9.60;;
15814;SDS011;8008;50.024;8.172;2023-02-11T13:38:53;11.67;;;7.63;;
15814;SDS011;8008;50.024;8.172;2023-02-11T13:41:30;16.33;;;8.47;;
15814;SDS011;8008;50.024;8.172;2023-02-11T13:44:05;13.97;;;8.30;;
15814;SDS011;8008;50.024;8.172;2023-02-11T13:46:50;15.60;;;9.27;;
15814;SDS011;8008;50.024;8.172;2023-02-11T13:49:21;12.10;;;7.22;;
15814;SDS011;8008;50.024;8.172;2023-02-11T13:51:51;18.13;;;9.20;;
15814;SDS011;8008;50.024;8.172;2023-02-11T13:54:31;19.63;;;9.52;;
15814;SDS011;8008;50.024;8.172;2023-02-11T13:59:53;19.60;;;12.03;;
15814;SDS011;8008;50.024;8.172;2023-02-11T14:02:26;16.30;;;9.95;;
15814;SDS011;8008;50.024;8.172;2023-02-11T14:05:20;15.30;;;9.88;;
15814;SDS011;8008;50.024;8.172;2023-02-11T14:14:17;19.60;;;11.23;;
15814;SDS011;8008;50.024;8.172;2023-02-11T14:19:57;12.45;;;8.68;;
15814;SDS011;8008;50.024;8.172;2023-02-11T14:22:27;17.17;;;11.85;;
15814;SDS011;8008;50.024;8.172;2023-02-11T14:24:58;12.60;;;8.68;;
15814;SDS011;8008;50.024;8.172;2023-02-11T14:27:28;12.68;;;9.07;;
15814;SDS011;8008;50.024;8.172;2023-02-11T14:30:18;12.48;;;8.25;;
15814;SDS011;8008;50.024;8.172;2023-02-11T14:33:03;14.63;;;8.85;;
15814;SDS011;8008;50.024;8.172;2023-02-11T14:35:48;17.10;;;8.00;;
15814;SDS011;8008;50.024;8.172;2023-02-11T14:38:25;13.27;;;8.55;;
15814;SDS011;8008;50.024;8.172;2023-02-11T14:41:04;15.53;;;8.77;;
15814;SDS011;8008;50.024;8.172;2023-02-11T14:43:37;14.20;;;8.50;;
15814;SDS011;8008;50.024;8.172;2023-02-11T14:46:10;15.38;;;9.50;;
15814;SDS011;8008;50.024;8.172;2023-02-11T14:48:38;15.15;;;8.40;;
15814;SDS011;8008;50.024;8.172;2023-02-11T14:51:14;14.47;;;9.40;;
15814;SDS011;8008;50.024;8.172;2023-02-11T14:53:47;12.63;;;7.97;;
15814;SDS011;8008;50.024;8.172;2023-02-11T14:56:20;15.93;;;8.63;;
15814;SDS011;8008;50.024;8.172;2023-02-11T14:58:52;10.37;;;7.90;;
15814;SDS011;8008;50.024;8.172;2023-02-11T15:01:24;17.30;;;9.80;;
15814;SDS011;8008;50.024;8.172;2023-02-11T15:03:55;24.67;;;11.57;;
15814;SDS011;8008;50.024;8.172;2023-02-11T15:06:27;17.37;;;10.30;;
15814;SDS011;8008;50.024;8.172;2023-02-11T15:08:59;14.55;;;8.73;;
15814;SDS011;8008;50.024;8.172;2023-02-11T15:11:32;17.50;;;9.43;;
15814;SDS011;8008;50.024;8.172;2023-02-11T15:14:06;17.00;;;9.90;;
15814;SDS011;8008;50.024;8.172;2023-02-11T15:16:40;16.87;;;9.10;;
15814;SDS011;8008;50.024;8.172;2023-02-11T15:19:16;16.85;;;9.95;;
15814;SDS011;8008;50.024;8.172;2023-02-11T15:21:47;19.53;;;10.30;;
15814;SDS011;8008;50.024;8.172;2023-02-11T15:24:22;17.17;;;8.80;;
15814;SDS011;8008;50.024;8.172;2023-02-11T15:26:55;17.70;;;8.10;;
15814;SDS011;8008;50.024;8.172;2023-02-11T15:29:24;13.98;;;8.30;;
15814;SDS011;8008;50.024;8.172;2023-02-11T15:32:05;14.63;;;7.95;;
15814;SDS011;8008;50.024;8.172;2023-02-11T15:34:38;11.18;;;7.15;;
15814;SDS011;8008;50.024;8.172;2023-02-11T15:37:06;11.63;;;6.80;;
15814;SDS011;8008;50.024;8.172;2023-02-11T15:39:38;12.18;;;6.78;;
15814;SDS011;8008;50.024;8.172;2023-02-11T15:42:17;11.07;;;6.90;;
15814;SDS011;8008;50.024;8.172;2023-02-11T15:44:47;17.77;;;11.65;;
15814;SDS011;8008;50.024;8.172;2023-02-11T15:47:23;14.73;;;10.47;;
15814;SDS011;8008;50.024;8.172;2023-02-11T15:49:51;13.90;;;9.25;;
15814;SDS011;8008;50.024;8.172;2023-02-11T15:52:27;13.02;;;7.45;;
15814;SDS011;8008;50.024;8.172;2023-02-11T15:54:56;13.00;;;7.90;;
15814;SDS011;8008;50.024;8.172;2023-02-11T15:57:26;12.68;;;7.68;;
15814;SDS011;8008;50.024;8.172;2023-02-11T15:59:55;15.43;;;8.05;;
15814;SDS011;8008;50.024;8.172;2023-02-11T16:02:38;11.63;;;8.40;;
15814;SDS011;8008;50.024;8.172;2023-02-11T16:05:23;12.43;;;8.07;;
15814;SDS011;8008;50.024;8.172;2023-02-11T16:07:53;13.87;;;8.90;;
15814;SDS011;8008;50.024;8.172;2023-02-11T16:10:24;15.70;;;9.00;;
15814;SDS011;8008;50.024;8.172;2023-02-11T16:12:55;14.48;;;9.00;;
15814;SDS011;8008;50.024;8.172;2023-02-11T16:15:42;14.30;;;8.98;;
15814;SDS011;8008;50.024;8.172;2023-02-11T16:21:05;11.67;;;8.03;;
15814;SDS011;8008;50.024;8.172;2023-02-11T16:23:51;16.95;;;8.85;;
15814;SDS011;8008;50.024;8.172;2023-02-11T16:26:21;23.73;;;12.83;;
15814;SDS011;8008;50.024;8.172;2023-02-11T16:29:00;18.10;;;9.82;;
15814;SDS011;8008;50.024;8.172;2023-02-11T16:31:31;18.65;;;9.60;;
15814;SDS011;8008;50.024;8.172;2023-02-11T16:34:00;18.90;;;10.47;;
15814;SDS011;8008;50.024;8.172;2023-02-11T16:36:28;18.40;;;11.57;;
15814;SDS011;8008;50.024;8.172;2023-02-11T16:38:57;20.13;;;12.60;;
15814;SDS011;8008;50.024;8.172;2023-02-11T16:41:25;18.30;;;12.05;;
15814;SDS011;8008;50.024;8.172;2023-02-11T16:43:54;17.90;;;11.98;;
15814;SDS011;8008;50.024;8.172;2023-02-11T16:46:23;17.58;;;10.70;;
15814;SDS011;8008;50.024;8.172;2023-02-11T16:48:52;18.47;;;10.60;;
15814;SDS011;8008;50.024;8.172;2023-02-11T16:51:21;16.75;;;9.55;;
15814;SDS011;8008;50.024;8.172;2023-02-11T16:53:49;13.23;;;8.70;;
15814;SDS011;8008;50.024;8.172;2023-02-11T16:56:18;15.68;;;10.40;;
15814;SDS011;8008;50.024;8.172;2023-02-11T16:58:47;13.00;;;9.35;;
15814;SDS011;8008;50.024;8.172;2023-02-11T17:01:15;15.27;;;9.07;;
15814;SDS011;8008;50.024;8.172;2023-02-11T17:03:43;15.30;;;10.15;;
15814;SDS011;8008;50.024;8.172;2023-02-11T17:06:13;13.95;;;8.35;;
15814;SDS011;8008;50.024;8.172;2023-02-11T17:11:19;12.85;;;7.70;;
15814;SDS011;8008;50.024;8.172;2023-02-11T17:13:48;12.18;;;7.90;;
15814;SDS011;8008;50.024;8.172;2023-02-11T17:16:16;13.57;;;8.82;;
15814;SDS011;8008;50.024;8.172;2023-02-11T17:18:50;11.90;;;7.90;;
15814;SDS011;8008;50.024;8.172;2023-02-11T17:21:17;11.93;;;9.30;;
15814;SDS011;8008;50.024;8.172;2023-02-11T17:23:45;12.85;;;9.52;;
15814;SDS011;8008;50.024;8.172;2023-02-11T17:26:15;12.77;;;8.13;;
15814;SDS011;8008;50.024;8.172;2023-02-11T17:28:45;11.45;;;7.28;;
15814;SDS011;8008;50.024;8.172;2023-02-11T17:31:13;11.02;;;7.20;;
15814;SDS011;8008;50.024;8.172;2023-02-11T17:33:41;10.38;;;6.47;;
15814;SDS011;8008;50.024;8.172;2023-02-11T17:36:12;8.98;;;6.88;;
15814;SDS011;8008;50.024;8.172;2023-02-11T17:38:41;12.60;;;7.47;;
15814;SDS011;8008;50.024;8.172;2023-02-11T17:41:09;14.70;;;8.93;;
15814;SDS011;8008;50.024;8.172;2023-02-11T17:43:39;31.17;;;17.93;;
15814;SDS011;8008;50.024;8.172;2023-02-11T17:46:09;24.35;;;15.27;;
15814;SDS011;8008;50.024;8.172;2023-02-11T17:48:38;22.05;;;12.52;;
15814;SDS011;8008;50.024;8.172;2023-02-11T17:51:16;17.05;;;11.30;;
15814;SDS011;8008;50.024;8.172;2023-02-11T17:53:48;17.38;;;11.82;;
15814;SDS011;8008;50.024;8.172;2023-02-11T17:56:16;15.95;;;11.05;;
15814;SDS011;8008;50.024;8.172;2023-02-11T17:58:44;17.10;;;11.07;;
15814;SDS011;8008;50.024;8.172;2023-02-11T18:01:13;14.15;;;8.77;;
15814;SDS011;8008;50.024;8.172;2023-02-11T18:03:41;16.05;;;9.40;;
15814;SDS011;8008;50.024;8.172;2023-02-11T18:06:09;15.02;;;9.48;;
15814;SDS011;8008;50.024;8.172;2023-02-11T18:08:38;11.17;;;7.70;;
15814;SDS011;8008;50.024;8.172;2023-02-11T18:11:08;15.10;;;8.23;;
15814;SDS011;8008;50.024;8.172;2023-02-11T18:13:36;14.73;;;8.87;;
15814;SDS011;8008;50.024;8.172;2023-02-11T18:16:04;15.48;;;9.57;;
15814;SDS011;8008;50.024;8.172;2023-02-11T18:18:35;14.68;;;9.02;;
15814;SDS011;8008;50.024;8.172;2023-02-11T18:21:03;50.30;;;25.00;;
15814;SDS011;8008;50.024;8.172;2023-02-11T18:23:33;23.07;;;14.77;;
15814;SDS011;8008;50.024;8.172;2023-02-11T18:26:02;16.38;;;9.80;;
15814;SDS011;8008;50.024;8.172;2023-02-11T18:28:33;12.70;;;7.80;;
15814;SDS011;8008;50.024;8.172;2023-02-11T18:31:01;13.97;;;7.47;;
15814;SDS011;8008;50.024;8.172;2023-02-11T18:33:30;16.80;;;9.27;;
15814;SDS011;8008;50.024;8.172;2023-02-11T18:35:59;15.80;;;9.30;;
15814;SDS011;8008;50.024;8.172;2023-02-11T18:38:31;14.75;;;9.32;;
15814;SDS011;8008;50.024;8.172;2023-02-11T18:40:59;15.38;;;9.98;;
15814;SDS011;8008;50.024;8.172;2023-02-11T18:43:27;17.57;;;11.10;;
15814;SDS011;8008;50.024;8.172;2023-02-11T18:45:56;17.40;;;11.07;;
15814;SDS011;8008;50.024;8.172;2023-02-11T18:48:24;18.17;;;10.50;;
15814;SDS011;8008;50.024;8.172;2023-02-11T18:50:53;16.63;;;10.10;;
15814;SDS011;8008;50.024;8.172;2023-02-11T18:53:23;21.03;;;12.30;;
15814;SDS011;8008;50.024;8.172;2023-02-11T18:55:51;16.40;;;11.47;;
15814;SDS011;8008;50.024;8.172;2023-02-11T18:58:20;18.27;;;11.73;;
15814;SDS011;8008;50.024;8.172;2023-02-11T19:00:48;18.88;;;11.68;;
15814;SDS011;8008;50.024;8.172;2023-02-11T19:03:17;19.33;;;12.70;;
15814;SDS011;8008;50.024;8.172;2023-02-11T19:05:45;24.07;;;14.67;;
15814;SDS011;8008;50.024;8.172;2023-02-11T19:08:15;19.25;;;11.32;;
15814;SDS011;8008;50.024;8.172;2023-02-11T19:10:45;16.60;;;10.83;;
15814;SDS011;8008;50.024;8.172;2023-02-11T19:13:14;15.70;;;9.57;;
15814;SDS011;8008;50.024;8.172;2023-02-11T19:15:43;18.13;;;11.10;;
15814;SDS011;8008;50.024;8.172;2023-02-11T19:18:12;19.33;;;12.03;;
15814;SDS011;8008;50.024;8.172;2023-02-11T19:20:41;27.57;;;16.07;;
15814;SDS011;8008;50.024;8.172;2023-02-11T19:23:11;23.35;;;14.68;;
15814;SDS011;8008;50.024;8.172;2023-02-11T19:25:44;20.73;;;13.70;;
15814;SDS011;8008;50.024;8.172;2023-02-11T19:28:13;24.23;;;14.43;;
15814;SDS011;8008;50.024;8.172;2023-02-11T19:30:42;24.53;;;15.23;;